Flugplatz Buckeburg Airport

Bericht für ETHB

vom 23.02. um 22:20 UTC

Wind 10 kt aus 290°

Sichtweite 10 km oder mehr

gering bewölkt in 2800 ft

Temperatur 5.0°C

Taupunkt 2.0°C

Luftfeuchtigkeit 81%

Luftdruck 1018 hPa

ETHB 232220Z 29010KT 9999 FEW028 05/02 Q1018 BLU+
Keine Prognose (TAF) verfügbar.
Impressum